sensor_id;sensor_type;location;lat;lon;timestamp;pressure;altitude;pressure_sealevel;temperature;humidity
18436;BME280;9346;52.006;4.720;2023-03-20T00:00:23;101850.44;;;9.48;100.00
18436;BME280;9346;52.006;4.720;2023-03-20T00:02:52;101842.44;;;9.47;100.00
18436;BME280;9346;52.006;4.720;2023-03-20T00:05:20;101837.19;;;9.45;100.00
18436;BME280;9346;52.006;4.720;2023-03-20T00:07:48;101832.06;;;9.37;100.00
18436;BME280;9346;52.006;4.720;2023-03-20T00:10:17;101831.38;;;9.30;100.00
18436;BME280;9346;52.006;4.720;2023-03-20T00:12:46;101825.50;;;9.27;100.00
18436;BME280;9346;52.006;4.720;2023-03-20T00:15:25;101816.31;;;9.21;100.00
18436;BME280;9346;52.006;4.720;2023-03-20T00:17:54;101830.53;;;9.18;100.00
18436;BME280;9346;52.006;4.720;2023-03-20T00:20:22;101839.16;;;9.22;100.00
18436;BME280;9346;52.006;4.720;2023-03-20T00:22:50;101846.78;;;9.20;100.00
18436;BME280;9346;52.006;4.720;2023-03-20T00:25:19;101864.47;;;9.24;100.00
18436;BME280;9346;52.006;4.720;2023-03-20T00:27:47;101862.91;;;9.28;100.00
18436;BME280;9346;52.006;4.720;2023-03-20T00:30:23;101874.03;;;9.33;100.00
18436;BME280;9346;52.006;4.720;2023-03-20T00:32:51;101881.19;;;9.34;100.00
18436;BME280;9346;52.006;4.720;2023-03-20T00:35:35;101879.28;;;9.34;100.00
18436;BME280;9346;52.006;4.720;2023-03-20T00:38:02;101883.94;;;9.34;100.00
18436;BME280;9346;52.006;4.720;2023-03-20T00:40:30;101877.63;;;9.33;100.00
18436;BME280;9346;52.006;4.720;2023-03-20T00:42:59;101870.34;;;9.27;100.00
18436;BME280;9346;52.006;4.720;2023-03-20T00:45:27;101856.00;;;9.25;100.00
18436;BME280;9346;52.006;4.720;2023-03-20T00:47:55;101853.38;;;9.19;100.00
18436;BME280;9346;52.006;4.720;2023-03-20T00:50:24;101853.97;;;9.09;100.00
18436;BME280;9346;52.006;4.720;2023-03-20T00:52:53;101865.22;;;9.07;100.00
18436;BME280;9346;52.006;4.720;2023-03-20T00:55:23;101864.72;;;9.10;100.00
18436;BME280;9346;52.006;4.720;2023-03-20T00:57:53;101863.06;;;9.09;100.00
18436;BME280;9346;52.006;4.720;2023-03-20T01:00:28;101854.34;;;9.01;100.00
18436;BME280;9346;52.006;4.720;2023-03-20T01:02:58;101847.78;;;8.90;100.00
18436;BME280;9346;52.006;4.720;2023-03-20T01:05:26;101837.03;;;8.77;100.00
18436;BME280;9346;52.006;4.720;2023-03-20T01:07:54;101846.91;;;8.67;100.00
18436;BME280;9346;52.006;4.720;2023-03-20T01:10:23;101840.47;;;8.61;100.00
18436;BME280;9346;52.006;4.720;2023-03-20T01:12:54;101847.53;;;8.57;100.00
18436;BME280;9346;52.006;4.720;2023-03-20T01:15:26;101848.69;;;8.50;100.00
18436;BME280;9346;52.006;4.720;2023-03-20T01:17:55;101855.28;;;8.49;100.00
18436;BME280;9346;52.006;4.720;2023-03-20T01:20:24;101848.56;;;8.45;100.00
18436;BME280;9346;52.006;4.720;2023-03-20T01:22:51;101843.91;;;8.45;100.00
18436;BME280;9346;52.006;4.720;2023-03-20T01:25:20;101838.28;;;8.40;100.00
18436;BME280;9346;52.006;4.720;2023-03-20T01:27:49;101838.41;;;8.34;100.00
18436;BME280;9346;52.006;4.720;2023-03-20T01:30:22;101864.41;;;8.31;100.00
18436;BME280;9346;52.006;4.720;2023-03-20T01:32:49;101878.25;;;8.36;100.00
18436;BME280;9346;52.006;4.720;2023-03-20T01:35:19;101878.75;;;8.45;100.00
18436;BME280;9346;52.006;4.720;2023-03-20T01:37:47;101877.59;;;8.52;100.00
18436;BME280;9346;52.006;4.720;2023-03-20T01:40:28;101891.47;;;8.57;100.00
18436;BME280;9346;52.006;4.720;2023-03-20T01:42:57;101894.56;;;8.61;100.00
18436;BME280;9346;52.006;4.720;2023-03-20T01:45:28;101894.69;;;8.66;100.00
18436;BME280;9346;52.006;4.720;2023-03-20T01:47:57;101890.88;;;8.67;100.00
18436;BME280;9346;52.006;4.720;2023-03-20T01:50:27;101887.78;;;8.63;100.00
18436;BME280;9346;52.006;4.720;2023-03-20T01:53:00;101889.28;;;8.59;100.00
18436;BME280;9346;52.006;4.720;2023-03-20T01:55:30;101882.38;;;8.57;100.00
18436;BME280;9346;52.006;4.720;2023-03-20T01:57:59;101874.22;;;8.50;100.00
18436;BME280;9346;52.006;4.720;2023-03-20T02:00:28;101870.53;;;8.45;100.00
18436;BME280;9346;52.006;4.720;2023-03-20T02:02:57;101871.69;;;8.37;100.00
18436;BME280;9346;52.006;4.720;2023-03-20T02:05:25;101874.78;;;8.29;100.00
18436;BME280;9346;52.006;4.720;2023-03-20T02:08:01;101864.75;;;8.23;100.00
18436;BME280;9346;52.006;4.720;2023-03-20T02:10:32;101871.91;;;8.24;100.00
18436;BME280;9346;52.006;4.720;2023-03-20T02:13:00;101867.03;;;8.26;100.00
18436;BME280;9346;52.006;4.720;2023-03-20T02:15:29;101872.28;;;8.28;100.00
18436;BME280;9346;52.006;4.720;2023-03-20T02:17:56;101870.97;;;8.30;100.00
18436;BME280;9346;52.006;4.720;2023-03-20T02:20:32;101854.16;;;8.27;100.00
18436;BME280;9346;52.006;4.720;2023-03-20T02:26:20;101831.50;;;8.13;100.00
18436;BME280;9346;52.006;4.720;2023-03-20T02:29:27;101833.06;;;8.09;100.00
18436;BME280;9346;52.006;4.720;2023-03-20T02:38:36;101815.09;;;7.95;100.00
18436;BME280;9346;52.006;4.720;2023-03-20T02:41:11;101811.78;;;7.93;100.00
18436;BME280;9346;52.006;4.720;2023-03-20T02:43:46;101796.63;;;7.91;100.00
18436;BME280;9346;52.006;4.720;2023-03-20T02:46:25;101796.84;;;7.89;100.00
18436;BME280;9346;52.006;4.720;2023-03-20T02:48:58;101814.59;;;7.87;100.00
18436;BME280;9346;52.006;4.720;2023-03-20T02:51:32;101812.09;;;7.85;100.00
18436;BME280;9346;52.006;4.720;2023-03-20T02:54:07;101814.38;;;7.88;100.00
18436;BME280;9346;52.006;4.720;2023-03-20T02:56:44;101815.22;;;7.89;100.00
18436;BME280;9346;52.006;4.720;2023-03-20T02:59:19;101805.66;;;7.91;100.00
18436;BME280;9346;52.006;4.720;2023-03-20T03:01:52;101808.78;;;7.95;100.00
18436;BME280;9346;52.006;4.720;2023-03-20T03:04:24;101805.19;;;7.94;100.00
18436;BME280;9346;52.006;4.720;2023-03-20T03:06:54;101800.78;;;7.93;100.00
18436;BME280;9346;52.006;4.720;2023-03-20T03:09:29;101798.06;;;7.93;100.00
18436;BME280;9346;52.006;4.720;2023-03-20T03:12:00;101796.63;;;7.91;100.00
18436;BME280;9346;52.006;4.720;2023-03-20T03:14:33;101804.00;;;7.90;100.00
18436;BME280;9346;52.006;4.720;2023-03-20T03:17:02;101808.41;;;7.91;100.00
18436;BME280;9346;52.006;4.720;2023-03-20T03:19:31;101798.06;;;7.93;100.00
18436;BME280;9346;52.006;4.720;2023-03-20T03:21:59;101802.69;;;7.93;100.00
18436;BME280;9346;52.006;4.720;2023-03-20T03:24:30;101794.69;;;7.91;100.00
18436;BME280;9346;52.006;4.720;2023-03-20T03:27:00;101784.81;;;7.90;100.00
18436;BME280;9346;52.006;4.720;2023-03-20T03:29:32;101794.13;;;7.89;100.00
18436;BME280;9346;52.006;4.720;2023-03-20T03:32:00;101776.81;;;7.89;100.00
18436;BME280;9346;52.006;4.720;2023-03-20T03:34:28;101778.13;;;7.86;100.00
18436;BME280;9346;52.006;4.720;2023-03-20T03:37:01;101779.41;;;7.84;100.00
18436;BME280;9346;52.006;4.720;2023-03-20T03:39:35;101769.50;;;7.83;100.00
18436;BME280;9346;52.006;4.720;2023-03-20T03:42:07;101773.34;;;7.82;100.00
18436;BME280;9346;52.006;4.720;2023-03-20T03:44:42;101782.38;;;7.82;100.00
18436;BME280;9346;52.006;4.720;2023-03-20T03:47:15;101767.00;;;7.81;100.00
18436;BME280;9346;52.006;4.720;2023-03-20T03:49:47;101774.38;;;7.81;100.00
18436;BME280;9346;52.006;4.720;2023-03-20T03:52:19;101767.22;;;7.80;100.00
18436;BME280;9346;52.006;4.720;2023-03-20T03:54:51;101766.38;;;7.79;100.00
18436;BME280;9346;52.006;4.720;2023-03-20T03:57:23;101761.75;;;7.80;100.00
18436;BME280;9346;52.006;4.720;2023-03-20T03:59:55;101757.09;;;7.80;100.00
18436;BME280;9346;52.006;4.720;2023-03-20T04:02:23;101753.50;;;7.80;100.00
18436;BME280;9346;52.006;4.720;2023-03-20T04:04:51;101754.59;;;7.79;100.00
18436;BME280;9346;52.006;4.720;2023-03-20T04:07:19;101756.72;;;7.77;100.00
18436;BME280;9346;52.006;4.720;2023-03-20T04:09:48;101751.47;;;7.75;100.00
18436;BME280;9346;52.006;4.720;2023-03-20T04:12:32;101742.19;;;7.76;100.00
18436;BME280;9346;52.006;4.720;2023-03-20T04:15:00;101736.94;;;7.75;100.00
18436;BME280;9346;52.006;4.720;2023-03-20T04:17:27;101748.97;;;7.74;100.00
18436;BME280;9346;52.006;4.720;2023-03-20T04:19:54;101756.13;;;7.75;100.00
18436;BME280;9346;52.006;4.720;2023-03-20T04:22:21;101755.06;;;7.76;100.00
18436;BME280;9346;52.006;4.720;2023-03-20T04:24:49;101758.66;;;7.76;100.00
18436;BME280;9346;52.006;4.720;2023-03-20T04:27:16;101761.13;;;7.78;100.00
18436;BME280;9346;52.006;4.720;2023-03-20T04:29:44;101763.63;;;7.79;100.00
18436;BME280;9346;52.006;4.720;2023-03-20T04:32:12;101759.84;;;7.80;100.00
18436;BME280;9346;52.006;4.720;2023-03-20T04:34:39;101760.44;;;7.82;100.00
18436;BME280;9346;52.006;4.720;2023-03-20T04:37:06;101760.19;;;7.84;100.00
18436;BME280;9346;52.006;4.720;2023-03-20T04:39:33;101756.41;;;7.85;100.00
18436;BME280;9346;52.006;4.720;2023-03-20T04:42:04;101741.00;;;7.84;100.00
18436;BME280;9346;52.006;4.720;2023-03-20T04:44:31;101742.69;;;7.85;100.00
18436;BME280;9346;52.006;4.720;2023-03-20T04:46:59;101749.47;;;7.82;100.00
18436;BME280;9346;52.006;4.720;2023-03-20T04:49:26;101738.50;;;7.82;100.00
18436;BME280;9346;52.006;4.720;2023-03-20T04:51:53;101733.84;;;7.83;100.00
18436;BME280;9346;52.006;4.720;2023-03-20T04:54:21;101731.94;;;7.83;100.00
18436;BME280;9346;52.006;4.720;2023-03-20T04:56:47;101734.69;;;7.83;100.00
18436;BME280;9346;52.006;4.720;2023-03-20T04:59:16;101733.63;;;7.84;100.00
18436;BME280;9346;52.006;4.720;2023-03-20T05:01:43;101732.53;;;7.85;100.00
18436;BME280;9346;52.006;4.720;2023-03-20T05:04:10;101722.66;;;7.84;100.00
18436;BME280;9346;52.006;4.720;2023-03-20T05:06:37;101719.06;;;7.84;100.00
18436;BME280;9346;52.006;4.720;2023-03-20T05:09:04;101718.25;;;7.83;100.00
18436;BME280;9346;52.006;4.720;2023-03-20T05:11:31;101714.66;;;7.83;100.00
18436;BME280;9346;52.006;4.720;2023-03-20T05:13:58;101718.25;;;7.83;100.00
18436;BME280;9346;52.006;4.720;2023-03-20T05:16:26;101718.72;;;7.80;100.00
18436;BME280;9346;52.006;4.720;2023-03-20T05:18:53;101724.44;;;7.79;100.00
18436;BME280;9346;52.006;4.720;2023-03-20T05:21:20;101730.50;;;7.81;100.00
18436;BME280;9346;52.006;4.720;2023-03-20T05:23:47;101733.00;;;7.82;100.00
18436;BME280;9346;52.006;4.720;2023-03-20T05:26:14;101732.78;;;7.84;100.00
18436;BME280;9346;52.006;4.720;2023-03-20T05:28:41;101732.78;;;7.84;100.00
18436;BME280;9346;52.006;4.720;2023-03-20T05:31:08;101732.53;;;7.85;100.00
18436;BME280;9346;52.006;4.720;2023-03-20T05:33:37;101735.66;;;7.89;100.00
18436;BME280;9346;52.006;4.720;2023-03-20T05:36:05;101739.00;;;7.91;100.00
18436;BME280;9346;52.006;4.720;2023-03-20T05:38:32;101740.44;;;7.93;100.00
18436;BME280;9346;52.006;4.720;2023-03-20T05:41:00;101741.25;;;7.94;100.00
18436;BME280;9346;52.006;4.720;2023-03-20T05:43:27;101747.59;;;7.94;100.00
18436;BME280;9346;52.006;4.720;2023-03-20T05:45:55;101747.34;;;7.96;100.00
18436;BME280;9346;52.006;4.720;2023-03-20T05:48:22;101750.94;;;7.96;100.00
18436;BME280;9346;52.006;4.720;2023-03-20T05:50:50;101747.13;;;7.97;100.00
18436;BME280;9346;52.006;4.720;2023-03-20T05:53:17;101754.75;;;7.95;100.00
18436;BME280;9346;52.006;4.720;2023-03-20T05:55:44;101749.25;;;7.95;100.00
18436;BME280;9346;52.006;4.720;2023-03-20T05:58:12;101753.94;;;7.95;100.00
18436;BME280;9346;52.006;4.720;2023-03-20T06:00:39;101742.09;;;7.94;100.00
18436;BME280;9346;52.006;4.720;2023-03-20T06:03:06;101749.72;;;7.92;100.00
18436;BME280;9346;52.006;4.720;2023-03-20T06:05:33;101750.81;;;7.91;100.00
18436;BME280;9346;52.006;4.720;2023-03-20T06:08:03;101753.53;;;7.91;100.00
18436;BME280;9346;52.006;4.720;2023-03-20T06:10:30;101759.03;;;7.91;100.00
18436;BME280;9346;52.006;4.720;2023-03-20T06:12:57;101756.91;;;7.93;100.00
18436;BME280;9346;52.006;4.720;2023-03-20T06:15:25;101762.16;;;7.95;100.00
18436;BME280;9346;52.006;4.720;2023-03-20T06:17:54;101766.56;;;7.96;100.00
18436;BME280;9346;52.006;4.720;2023-03-20T06:20:21;101770.97;;;7.97;100.00
18436;BME280;9346;52.006;4.720;2023-03-20T06:22:48;101774.31;;;7.99;100.00
18436;BME280;9346;52.006;4.720;2023-03-20T06:25:17;101777.91;;;7.99;100.00
18436;BME280;9346;52.006;4.720;2023-03-20T06:27:45;101777.91;;;7.99;100.00
18436;BME280;9346;52.006;4.720;2023-03-20T06:30:12;101768.59;;;8.00;100.00
18436;BME280;9346;52.006;4.720;2023-03-20T06:32:40;101775.75;;;8.01;100.00
18436;BME280;9346;52.006;4.720;2023-03-20T06:35:07;101774.72;;;8.02;100.00
18436;BME280;9346;52.006;4.720;2023-03-20T06:37:35;101773.00;;;8.01;100.00
18436;BME280;9346;52.006;4.720;2023-03-20T06:40:02;101777.44;;;8.02;100.00
18436;BME280;9346;52.006;4.720;2023-03-20T06:42:31;101780.19;;;8.02;100.00
18436;BME280;9346;52.006;4.720;2023-03-20T06:44:58;101769.81;;;8.04;100.00
18436;BME280;9346;52.006;4.720;2023-03-20T06:47:25;101779.13;;;8.03;100.00
18436;BME280;9346;52.006;4.720;2023-03-20T06:49:52;101780.78;;;8.04;100.00
18436;BME280;9346;52.006;4.720;2023-03-20T06:52:19;101785.44;;;8.04;100.00
18436;BME280;9346;52.006;4.720;2023-03-20T06:54:47;101789.84;;;8.05;100.00
18436;BME280;9346;52.006;4.720;2023-03-20T06:57:15;101791.75;;;8.04;100.00
18436;BME280;9346;52.006;4.720;2023-03-20T06:59:44;101788.53;;;8.07;100.00
18436;BME280;9346;52.006;4.720;2023-03-20T07:02:12;101787.47;;;8.08;100.00
18436;BME280;9346;52.006;4.720;2023-03-20T07:04:40;101790.19;;;8.08;100.00
18436;BME280;9346;52.006;4.720;2023-03-20T07:07:07;101784.72;;;8.08;100.00
18436;BME280;9346;52.006;4.720;2023-03-20T07:09:34;101793.78;;;8.09;100.00
18436;BME280;9346;52.006;4.720;2023-03-20T07:12:01;101796.31;;;8.10;100.00
18436;BME280;9346;52.006;4.720;2023-03-20T07:14:29;101789.16;;;8.09;100.00
18436;BME280;9346;52.006;4.720;2023-03-20T07:16:57;101791.44;;;8.12;100.00
18436;BME280;9346;52.006;4.720;2023-03-20T07:19:24;101784.84;;;8.13;100.00
18436;BME280;9346;52.006;4.720;2023-03-20T07:21:55;101786.53;;;8.14;100.00
18436;BME280;9346;52.006;4.720;2023-03-20T07:24:26;101783.78;;;8.14;100.00
18436;BME280;9346;52.006;4.720;2023-03-20T07:26:53;101784.38;;;8.16;100.00
18436;BME280;9346;52.006;4.720;2023-03-20T07:29:20;101783.31;;;8.17;100.00
18436;BME280;9346;52.006;4.720;2023-03-20T07:31:47;101780.94;;;8.21;100.00
18436;BME280;9346;52.006;4.720;2023-03-20T07:34:17;101788.97;;;8.22;100.00
18436;BME280;9346;52.006;4.720;2023-03-20T07:36:44;101788.97;;;8.22;100.00
18436;BME280;9346;52.006;4.720;2023-03-20T07:39:12;101793.16;;;8.25;100.00
18436;BME280;9346;52.006;4.720;2023-03-20T07:41:39;101789.94;;;8.28;100.00
18436;BME280;9346;52.006;4.720;2023-03-20T07:44:06;101790.78;;;8.28;100.00
18436;BME280;9346;52.006;4.720;2023-03-20T07:46:34;101797.69;;;8.31;100.00
18436;BME280;9346;52.006;4.720;2023-03-20T07:49:01;101795.31;;;8.34;100.00
18436;BME280;9346;52.006;4.720;2023-03-20T07:51:32;101793.78;;;8.38;100.00
18436;BME280;9346;52.006;4.720;2023-03-20T07:53:59;101794.34;;;8.40;100.00
18436;BME280;9346;52.006;4.720;2023-03-20T07:56:26;101793.06;;;8.43;100.00
18436;BME280;9346;52.006;4.720;2023-03-20T07:58:53;101801.88;;;8.45;100.00
18436;BME280;9346;52.006;4.720;2023-03-20T08:01:20;101797.00;;;8.47;100.00
18436;BME280;9346;52.006;4.720;2023-03-20T08:03:47;101794.00;;;8.48;100.00
18436;BME280;9346;52.006;4.720;2023-03-20T08:06:14;101804.53;;;8.51;100.00
18436;BME280;9346;52.006;4.720;2023-03-20T08:08:42;101802.84;;;8.50;100.00
18436;BME280;9346;52.006;4.720;2023-03-20T08:11:09;101807.28;;;8.51;100.00
18436;BME280;9346;52.006;4.720;2023-03-20T08:13:39;101804.53;;;8.51;100.00
18436;BME280;9346;52.006;4.720;2023-03-20T08:16:07;101811.44;;;8.54;100.00
18436;BME280;9346;52.006;4.720;2023-03-20T08:18:34;101804.06;;;8.54;100.00
18436;BME280;9346;52.006;4.720;2023-03-20T08:21:01;101806.81;;;8.54;100.00
18436;BME280;9346;52.006;4.720;2023-03-20T08:23:27;101808.47;;;8.55;100.00
18436;BME280;9346;52.006;4.720;2023-03-20T08:25:56;101808.84;;;8.59;100.00
18436;BME280;9346;52.006;4.720;2023-03-20T08:28:23;101810.25;;;8.61;100.00
18436;BME280;9346;52.006;4.720;2023-03-20T08:30:49;101794.41;;;8.63;100.00
18436;BME280;9346;52.006;4.720;2023-03-20T08:33:17;101805.13;;;8.65;100.00
18436;BME280;9346;52.006;4.720;2023-03-20T08:35:54;101801.31;;;8.66;100.00
18436;BME280;9346;52.006;4.720;2023-03-20T08:38:21;101811.44;;;8.65;100.00
18436;BME280;9346;52.006;4.720;2023-03-20T08:40:48;101812.88;;;8.68;100.00
18436;BME280;9346;52.006;4.720;2023-03-20T08:43:17;101813.13;;;8.66;100.00
18436;BME280;9346;52.006;4.720;2023-03-20T08:45:44;101811.59;;;8.70;100.00
18436;BME280;9346;52.006;4.720;2023-03-20T08:48:11;101804.53;;;8.74;100.00
18436;BME280;9346;52.006;4.720;2023-03-20T08:50:38;101811.69;;;8.75;100.00
18436;BME280;9346;52.006;4.720;2023-03-20T08:53:05;101806.19;;;8.75;100.00
18436;BME280;9346;52.006;4.720;2023-03-20T08:55:32;101805.72;;;8.78;100.00
18436;BME280;9346;52.006;4.720;2023-03-20T08:57:59;101806.09;;;8.82;100.00
18436;BME280;9346;52.006;4.720;2023-03-20T09:00:28;101802.88;;;8.85;100.00
18436;BME280;9346;52.006;4.720;2023-03-20T09:02:55;101801.06;;;8.90;100.00
18436;BME280;9346;52.006;4.720;2023-03-20T09:05:22;101801.66;;;8.92;100.00
18436;BME280;9346;52.006;4.720;2023-03-20T09:07:49;101807.75;;;8.94;100.00
18436;BME280;9346;52.006;4.720;2023-03-20T09:10:16;101800.34;;;8.95;100.00
18436;BME280;9346;52.006;4.720;2023-03-20T09:12:43;101793.75;;;8.96;100.00
18436;BME280;9346;52.006;4.720;2023-03-20T09:15:10;101799.50;;;8.94;100.00
18436;BME280;9346;52.006;4.720;2023-03-20T09:17:38;101793.44;;;8.92;100.00
18436;BME280;9346;52.006;4.720;2023-03-20T09:20:07;101790.31;;;8.89;100.00
18436;BME280;9346;52.006;4.720;2023-03-20T09:22:35;101797.13;;;8.86;100.00
18436;BME280;9346;52.006;4.720;2023-03-20T09:25:06;101796.66;;;8.89;100.00
18436;BME280;9346;52.006;4.720;2023-03-20T09:27:33;101805.13;;;8.88;100.00
18436;BME280;9346;52.006;4.720;2023-03-20T09:30:00;101798.69;;;8.94;100.00
18436;BME280;9346;52.006;4.720;2023-03-20T09:32:27;101808.34;;;8.96;100.00
18436;BME280;9346;52.006;4.720;2023-03-20T09:34:56;101797.13;;;8.98;100.00
18436;BME280;9346;52.006;4.720;2023-03-20T09:37:23;101791.63;;;8.98;100.00
18436;BME280;9346;52.006;4.720;2023-03-20T09:39:50;101798.53;;;9.00;100.00
18436;BME280;9346;52.006;4.720;2023-03-20T09:42:25;101800.81;;;9.03;100.00
18436;BME280;9346;52.006;4.720;2023-03-20T09:45:01;101799.72;;;9.04;100.00
18436;BME280;9346;52.006;4.720;2023-03-20T09:47:34;101798.44;;;9.07;100.00
18436;BME280;9346;52.006;4.720;2023-03-20T09:50:13;101801.50;;;9.10;100.00
18436;BME280;9346;52.006;4.720;2023-03-20T09:52:53;101799.38;;;9.13;100.00
18436;BME280;9346;52.006;4.720;2023-03-20T09:55:26;101801.63;;;9.16;100.00
18436;BME280;9346;52.006;4.720;2023-03-20T09:57:58;101806.66;;;9.19;100.00
18436;BME280;9346;52.006;4.720;2023-03-20T10:00:30;101795.19;;;9.22;100.00
18436;BME280;9346;52.006;4.720;2023-03-20T10:03:01;101793.16;;;9.17;100.00
18436;BME280;9346;52.006;4.720;2023-03-20T10:05:34;101805.66;;;9.25;100.00
18436;BME280;9346;52.006;4.720;2023-03-20T10:08:06;101796.94;;;9.28;100.00
18436;BME280;9346;52.006;4.720;2023-03-20T10:10:41;101805.53;;;9.31;100.00
18436;BME280;9346;52.006;4.720;2023-03-20T10:13:30;101793.56;;;9.37;100.00
18436;BME280;9346;52.006;4.720;2023-03-20T10:16:03;101796.78;;;9.46;100.00
18436;BME280;9346;52.006;4.720;2023-03-20T10:18:38;101797.13;;;9.49;100.00
18436;BME280;9346;52.006;4.720;2023-03-20T10:21:12;101794.72;;;9.53;100.00
18436;BME280;9346;52.006;4.720;2023-03-20T10:23:48;101788.88;;;9.49;100.00
18436;BME280;9346;52.006;4.720;2023-03-20T10:26:21;101781.81;;;9.53;100.00
18436;BME280;9346;52.006;4.720;2023-03-20T10:28:51;101788.72;;;9.56;100.00
18436;BME280;9346;52.006;4.720;2023-03-20T10:31:29;101786.34;;;9.59;100.00
18436;BME280;9346;52.006;4.720;2023-03-20T10:34:09;101783.09;;;9.62;100.00
18436;BME280;9346;52.006;4.720;2023-03-20T10:36:52;101777.34;;;9.64;100.00
18436;BME280;9346;52.006;4.720;2023-03-20T10:39:35;101771.34;;;9.67;100.00
18436;BME280;9346;52.006;4.720;2023-03-20T10:42:14;101777.19;;;9.70;100.00
18436;BME280;9346;52.006;4.720;2023-03-20T10:44:46;101775.84;;;9.73;100.00
18436;BME280;9346;52.006;4.720;2023-03-20T10:47:18;101772.34;;;9.77;100.00
18436;BME280;9346;52.006;4.720;2023-03-20T10:49:49;101774.72;;;9.85;100.00
18436;BME280;9346;52.006;4.720;2023-03-20T10:52:22;101765.63;;;9.85;100.00
18436;BME280;9346;52.006;4.720;2023-03-20T10:54:54;101756.03;;;9.87;100.00
18436;BME280;9346;52.006;4.720;2023-03-20T10:57:23;101763.91;;;9.95;100.00
18436;BME280;9346;52.006;4.720;2023-03-20T10:59:53;101755.03;;;9.93;100.00
18436;BME280;9346;52.006;4.720;2023-03-20T11:02:24;101763.06;;;9.95;100.00
18436;BME280;9346;52.006;4.720;2023-03-20T11:04:51;101757.56;;;9.95;100.00
18436;BME280;9346;52.006;4.720;2023-03-20T11:07:22;101753.75;;;9.96;100.00
18436;BME280;9346;52.006;4.720;2023-03-20T11:10:11;101750.72;;;9.97;100.00
18436;BME280;9346;52.006;4.720;2023-03-20T11:12:39;101739.69;;;9.97;100.00
18436;BME280;9346;52.006;4.720;2023-03-20T11:15:18;101739.44;;;9.99;100.00
18436;BME280;9346;52.006;4.720;2023-03-20T11:17:51;101736.81;;;10.04;100.00
18436;BME280;9346;52.006;4.720;2023-03-20T11:20:18;101731.53;;;10.02;100.00
18436;BME280;9346;52.006;4.720;2023-03-20T11:22:47;101735.88;;;9.98;100.00
18436;BME280;9346;52.006;4.720;2023-03-20T11:25:24;101735.03;;;9.98;100.00
18436;BME280;9346;52.006;4.720;2023-03-20T11:27:54;101733.38;;;9.97;100.00
18436;BME280;9346;52.006;4.720;2023-03-20T11:30:22;101720.19;;;9.99;100.00
18436;BME280;9346;52.006;4.720;2023-03-20T11:32:49;101730.38;;;9.98;100.00
18436;BME280;9346;52.006;4.720;2023-03-20T11:35:25;101730.38;;;9.98;100.00
18436;BME280;9346;52.006;4.720;2023-03-20T11:38:08;101725.19;;;10.02;100.00
18436;BME280;9346;52.006;4.720;2023-03-20T11:40:36;101726.97;;;10.08;100.00
18436;BME280;9346;52.006;4.720;2023-03-20T11:43:09;101724.34;;;10.13;100.00
18436;BME280;9346;52.006;4.720;2023-03-20T11:45:39;101724.41;;;10.18;100.00
18436;BME280;9346;52.006;4.720;2023-03-20T11:48:15;101721.66;;;10.18;100.00
18436;BME280;9346;52.006;4.720;2023-03-20T11:50:45;101721.91;;;10.16;100.00
18436;BME280;9346;52.006;4.720;2023-03-20T11:53:24;101726.91;;;10.19;100.00
18436;BME280;9346;52.006;4.720;2023-03-20T11:56:04;101722.75;;;10.17;100.00
18436;BME280;9346;52.006;4.720;2023-03-20T11:58:33;101719.38;;;10.15;100.00
18436;BME280;9346;52.006;4.720;2023-03-20T12:01:03;101723.84;;;10.16;100.00
18436;BME280;9346;52.006;4.720;2023-03-20T12:03:43;101728.50;;;10.15;100.00
18436;BME280;9346;52.006;4.720;2023-03-20T12:06:17;101724.66;;;10.16;100.00
18436;BME280;9346;52.006;4.720;2023-03-20T12:08:50;101731.59;;;10.19;100.00
18436;BME280;9346;52.006;4.720;2023-03-20T12:11:27;101736.09;;;10.25;100.00
18436;BME280;9346;52.006;4.720;2023-03-20T12:13:59;101730.06;;;10.28;100.00
18436;BME280;9346;52.006;4.720;2023-03-20T12:16:28;101733.66;;;10.28;100.00
18436;BME280;9346;52.006;4.720;2023-03-20T12:18:59;101730.91;;;10.28;100.00
18436;BME280;9346;52.006;4.720;2023-03-20T12:21:33;101731.16;;;10.27;100.00
18436;BME280;9346;52.006;4.720;2023-03-20T12:24:08;101721.75;;;10.23;100.00
18436;BME280;9346;52.006;4.720;2023-03-20T12:26:44;101724.00;;;10.26;100.00
18436;BME280;9346;52.006;4.720;2023-03-20T12:29:19;101718.81;;;10.29;100.00
18436;BME280;9346;52.006;4.720;2023-03-20T12:31:52;101726.25;;;10.29;100.00
18436;BME280;9346;52.006;4.720;2023-03-20T12:34:23;101719.66;;;10.30;100.00
18436;BME280;9346;52.006;4.720;2023-03-20T12:36:53;101728.75;;;10.30;100.00
18436;BME280;9346;52.006;4.720;2023-03-20T12:39:26;101719.34;;;10.26;100.00
18436;BME280;9346;52.006;4.720;2023-03-20T12:42:06;101709.38;;;10.25;100.00
18436;BME280;9346;52.006;4.720;2023-03-20T12:44:43;101715.13;;;10.24;100.00
18436;BME280;9346;52.006;4.720;2023-03-20T12:47:36;101713.81;;;10.26;100.00
18436;BME280;9346;52.006;4.720;2023-03-20T12:50:10;101708.31;;;10.26;100.00
18436;BME280;9346;52.006;4.720;2023-03-20T12:52:48;101711.06;;;10.26;100.00
18436;BME280;9346;52.006;4.720;2023-03-20T12:55:25;101703.31;;;10.23;100.00
18436;BME280;9346;52.006;4.720;2023-03-20T12:58:05;101705.97;;;10.18;100.00
18436;BME280;9346;52.006;4.720;2023-03-20T13:00:39;101702.63;;;10.16;100.00
18436;BME280;9346;52.006;4.720;2023-03-20T13:03:21;101710.06;;;10.16;100.00
18436;BME280;9346;52.006;4.720;2023-03-20T13:05:55;101709.56;;;10.19;100.00
18436;BME280;9346;52.006;4.720;2023-03-20T13:08:41;101708.97;;;10.17;100.00
18436;BME280;9346;52.006;4.720;2023-03-20T13:11:21;101697.38;;;10.15;100.00
18436;BME280;9346;52.006;4.720;2023-03-20T13:13:53;101699.56;;;10.13;100.00
18436;BME280;9346;52.006;4.720;2023-03-20T13:16:29;101696.22;;;10.11;100.00
18436;BME280;9346;52.006;4.720;2023-03-20T13:19:02;101691.44;;;10.06;100.00
18436;BME280;9346;52.006;4.720;2023-03-20T13:21:38;101703.06;;;10.08;100.00
18436;BME280;9346;52.006;4.720;2023-03-20T13:24:18;101700.56;;;10.07;100.00